Time;durP1;ratioP1;P1;durP2;ratioP2;P2;SDS_P1;SDS_P2;PMS_P1;PMS_P2;Temp;Humidity;BMP_temperature;BMP_pressure;BME280_temperature;BME280_humidity;BME280_pressure;Samples;Min_cycle;Max_cycle;Signal;HPM_P1;HPM_P2
2024/04/06 00:01:16;;;;;;;2.23;1.43;;;;;;;;;;5050856;28;20185;-85
2024/04/06 00:03:42;;;;;;;4.10;1.47;;;;;;;;;;5068503;28;20658;-86
2024/04/06 00:06:08;;;;;;;3.63;1.63;;;;;;;;;;5067400;28;20606;-87
2024/04/06 00:08:34;;;;;;;7.63;2.07;;;;;;;;;;5050587;28;20182;-86
2024/04/06 00:11:00;;;;;;;3.80;2.10;;;;;;;;;;5067593;28;20186;-85
2024/04/06 00:13:26;;;;;;;3.80;1.97;;;;;;;;;;5051840;28;20220;-85
2024/04/06 00:15:52;;;;;;;5.10;2.43;;;;;;;;;;5070295;28;20221;-85
2024/04/06 00:18:18;;;;;;;6.13;1.80;;;;;;;;;;5070429;28;20202;-85
2024/04/06 00:20:44;;;;;;;4.87;2.00;;;;;;;;;;5067198;28;20266;-85
2024/04/06 00:23:09;;;;;;;5.53;2.33;;;;;;;;;;5050133;28;20213;-86
2024/04/06 00:25:35;;;;;;;5.17;1.67;;;;;;;;;;5066857;28;20179;-85
2024/04/06 00:28:01;;;;;;;4.90;1.80;;;;;;;;;;5049587;28;20453;-88
2024/04/06 00:30:27;;;;;;;6.23;1.97;;;;;;;;;;5054086;28;20186;-85
2024/04/06 00:32:53;;;;;;;7.23;2.03;;;;;;;;;;5067597;28;20588;-86
2024/04/06 00:35:19;;;;;;;3.97;1.70;;;;;;;;;;5065628;28;20240;-86
2024/04/06 00:37:45;;;;;;;3.47;2.07;;;;;;;;;;5065546;28;20650;-86
2024/04/06 00:40:11;;;;;;;5.43;2.10;;;;;;;;;;5051003;28;20726;-86
2024/04/06 00:42:37;;;;;;;4.13;2.17;;;;;;;;;;5066188;28;20231;-85
2024/04/06 00:45:03;;;;;;;5.67;1.83;;;;;;;;;;5049918;28;20270;-86
2024/04/06 00:47:29;;;;;;;7.97;1.83;;;;;;;;;;5049960;28;20218;-85
2024/04/06 00:49:55;;;;;;;6.13;2.00;;;;;;;;;;5050189;28;20191;-85
2024/04/06 00:52:21;;;;;;;3.60;1.97;;;;;;;;;;5055635;28;20191;-85
2024/04/06 00:54:47;;;;;;;5.80;2.13;;;;;;;;;;5051267;28;20190;-86
2024/04/06 00:57:13;;;;;;;5.03;1.90;;;;;;;;;;5049288;28;20589;-86
2024/04/06 00:59:39;;;;;;;4.37;1.93;;;;;;;;;;5068706;28;20263;-88
2024/04/06 01:02:06;;;;;;;6.30;1.63;;;;;;;;;;5068831;28;20236;-85
2024/04/06 01:04:32;;;;;;;3.13;1.70;;;;;;;;;;5064768;28;20253;-85
2024/04/06 01:06:58;;;;;;;5.37;1.73;;;;;;;;;;5065578;28;20293;-85
2024/04/06 01:09:24;;;;;;;6.10;1.40;;;;;;;;;;5061256;28;20713;-86
2024/04/06 01:11:50;;;;;;;4.00;1.77;;;;;;;;;;5052705;28;20221;-85
2024/04/06 01:14:16;;;;;;;7.70;1.93;;;;;;;;;;5067066;28;20650;-85
2024/04/06 01:16:43;;;;;;;3.77;1.87;;;;;;;;;;5062002;28;20615;-86
2024/04/06 01:19:09;;;;;;;4.33;1.60;;;;;;;;;;5051256;28;20202;-85
2024/04/06 01:21:35;;;;;;;4.60;1.90;;;;;;;;;;5065275;28;20179;-86
2024/04/06 01:24:05;;;;;;;3.60;1.70;;;;;;;;;;5049025;28;20699;-87
2024/04/06 01:26:31;;;;;;;8.27;1.80;;;;;;;;;;5065943;28;20207;-85
2024/04/06 01:28:58;;;;;;;3.87;1.80;;;;;;;;;;5042387;28;20638;-85
2024/04/06 01:31:23;;;;;;;4.43;2.10;;;;;;;;;;5066939;28;20194;-88
2024/04/06 01:33:50;;;;;;;8.77;2.07;;;;;;;;;;5047487;28;20183;-85
2024/04/06 01:36:16;;;;;;;6.67;1.83;;;;;;;;;;5051727;28;20294;-86
2024/04/06 01:38:42;;;;;;;3.70;1.90;;;;;;;;;;5067254;28;20203;-86
2024/04/06 01:41:08;;;;;;;5.43;2.43;;;;;;;;;;5064739;28;20179;-86
2024/04/06 01:43:34;;;;;;;7.70;2.27;;;;;;;;;;5062670;28;20186;-85
2024/04/06 01:46:00;;;;;;;3.70;2.07;;;;;;;;;;5046720;28;20677;-85
2024/04/06 01:48:26;;;;;;;5.87;2.03;;;;;;;;;;5060624;28;20183;-86
2024/04/06 01:50:52;;;;;;;3.97;2.30;;;;;;;;;;5047127;28;20202;-85
2024/04/06 01:53:18;;;;;;;4.60;2.13;;;;;;;;;;5050864;28;20226;-86
2024/04/06 01:55:44;;;;;;;4.47;2.23;;;;;;;;;;5061019;28;21071;-86
2024/04/06 01:58:10;;;;;;;3.33;1.67;;;;;;;;;;5041656;28;20235;-87
2024/04/06 02:00:36;;;;;;;5.17;1.97;;;;;;;;;;5065116;28;20179;-85
2024/04/06 02:03:04;;;;;;;3.37;1.67;;;;;;;;;;5067515;28;20179;-85
2024/04/06 02:05:29;;;;;;;6.20;1.67;;;;;;;;;;5065871;28;20707;-85
2024/04/06 02:07:55;;;;;;;3.47;1.43;;;;;;;;;;5045931;28;20176;-87
2024/04/06 02:10:21;;;;;;;4.10;1.90;;;;;;;;;;5066485;28;20236;-85
2024/04/06 02:12:50;;;;;;;4.77;1.97;;;;;;;;;;5045516;28;20183;-86
2024/04/06 02:15:16;;;;;;;3.90;1.77;;;;;;;;;;5045717;28;20178;-85
2024/04/06 02:17:42;;;;;;;3.70;1.57;;;;;;;;;;5044073;28;20195;-85
2024/04/06 02:20:09;;;;;;;3.67;1.50;;;;;;;;;;5064754;28;20198;-86
2024/04/06 02:22:35;;;;;;;4.70;1.60;;;;;;;;;;5043373;28;20654;-86
2024/04/06 02:25:03;;;;;;;6.90;2.00;;;;;;;;;;5061087;28;20185;-86
2024/04/06 02:27:29;;;;;;;3.00;1.30;;;;;;;;;;5067510;28;20689;-85
2024/04/06 02:29:55;;;;;;;5.23;1.60;;;;;;;;;;5040708;28;20222;-86
2024/04/06 02:32:21;;;;;;;4.03;2.10;;;;;;;;;;5049865;28;20282;-86
2024/04/06 02:34:47;;;;;;;3.57;1.73;;;;;;;;;;5043282;28;20179;-86
2024/04/06 02:37:13;;;;;;;5.47;1.93;;;;;;;;;;5063742;28;20206;-86
2024/04/06 02:39:40;;;;;;;4.03;1.93;;;;;;;;;;5063495;28;20226;-86
2024/04/06 02:42:06;;;;;;;3.40;2.03;;;;;;;;;;5049975;28;20198;-89
2024/04/06 02:44:32;;;;;;;8.40;1.97;;;;;;;;;;5066462;28;20737;-86
2024/04/06 02:46:58;;;;;;;5.37;1.70;;;;;;;;;;5066389;28;20290;-86
2024/04/06 02:49:24;;;;;;;3.73;2.10;;;;;;;;;;5062234;28;20278;-86
2024/04/06 02:51:51;;;;;;;5.73;1.90;;;;;;;;;;5045247;28;20183;-85
2024/04/06 02:54:16;;;;;;;4.93;2.33;;;;;;;;;;5063819;28;20745;-85
2024/04/06 02:56:42;;;;;;;4.07;1.60;;;;;;;;;;5092129;22;20260;-84
2024/04/06 02:59:08;;;;;;;2.13;1.20;;;;;;;;;;5063903;28;20214;-83
2024/04/06 03:01:34;;;;;;;4.77;1.50;;;;;;;;;;5083698;28;20181;-84
2024/04/06 03:04:00;;;;;;;6.87;1.50;;;;;;;;;;5067702;28;20205;-85
2024/04/06 03:06:26;;;;;;;4.27;1.43;;;;;;;;;;5085707;28;20697;-84
2024/04/06 03:08:52;;;;;;;4.53;1.50;;;;;;;;;;5086771;28;20452;-84
2024/04/06 03:11:19;;;;;;;3.63;1.70;;;;;;;;;;5087370;28;20273;-84
2024/04/06 03:13:45;;;;;;;3.63;1.40;;;;;;;;;;5085505;28;20210;-84
2024/04/06 03:16:10;;;;;;;4.70;1.77;;;;;;;;;;5068910;28;20658;-83
2024/04/06 03:18:36;;;;;;;2.73;1.47;;;;;;;;;;5091496;28;20555;-84
2024/04/06 03:21:04;;;;;;;4.23;1.50;;;;;;;;;;5091132;28;20617;-84
2024/04/06 03:23:30;;;;;;;2.77;1.60;;;;;;;;;;5074237;28;20732;-84
2024/04/06 03:25:57;;;;;;;2.43;1.60;;;;;;;;;;5077264;28;20453;-84
2024/04/06 03:28:23;;;;;;;3.40;1.50;;;;;;;;;;5090794;28;20189;-84
2024/04/06 03:30:49;;;;;;;3.30;1.30;;;;;;;;;;5076110;28;20193;-84
2024/04/06 03:33:15;;;;;;;4.70;1.20;;;;;;;;;;5074308;28;20213;-84
2024/04/06 03:35:41;;;;;;;2.47;1.07;;;;;;;;;;5089378;28;20228;-84
2024/04/06 03:38:07;;;;;;;5.60;1.30;;;;;;;;;;5090308;28;20213;-85
2024/04/06 03:40:32;;;;;;;4.60;1.53;;;;;;;;;;5076054;28;20178;-85
2024/04/06 03:43:00;;;;;;;2.20;1.60;;;;;;;;;;5093355;28;20177;-84
2024/04/06 03:45:26;;;;;;;2.37;1.10;;;;;;;;;;5088942;28;20182;-84
2024/04/06 03:47:52;;;;;;;5.73;1.30;;;;;;;;;;5091740;28;20635;-84
2024/04/06 03:50:19;;;;;;;3.83;1.67;;;;;;;;;;5095347;28;20724;-84
2024/04/06 03:52:45;;;;;;;5.40;1.30;;;;;;;;;;5094715;28;20178;-83
2024/04/06 03:55:12;;;;;;;2.77;1.57;;;;;;;;;;5093811;28;20189;-84
2024/04/06 03:57:37;;;;;;;4.77;1.20;;;;;;;;;;5090344;28;20214;-84
2024/04/06 04:00:08;;;;;;;2.47;1.17;;;;;;;;;;5092771;28;20216;-84
2024/04/06 04:02:34;;;;;;;3.87;1.30;;;;;;;;;;5092302;28;20498;-84
2024/04/06 04:05:00;;;;;;;8.40;1.50;;;;;;;;;;5092975;28;20320;-84
2024/04/06 04:07:26;;;;;;;4.13;1.33;;;;;;;;;;5092680;28;20603;-85
2024/04/06 04:09:52;;;;;;;4.63;1.40;;;;;;;;;;5093287;28;20182;-84
2024/04/06 04:12:18;;;;;;;3.37;1.30;;;;;;;;;;5088813;28;20175;-84
2024/04/06 04:14:44;;;;;;;6.87;1.70;;;;;;;;;;5088605;28;20185;-84
2024/04/06 04:17:10;;;;;;;6.27;1.60;;;;;;;;;;5094758;28;20235;-83
2024/04/06 04:19:36;;;;;;;9.37;1.43;;;;;;;;;;5094774;28;20392;-84
2024/04/06 04:22:02;;;;;;;3.03;1.50;;;;;;;;;;5092978;28;20186;-83
2024/04/06 04:24:29;;;;;;;3.30;1.50;;;;;;;;;;5094184;28;20194;-84
2024/04/06 04:26:55;;;;;;;5.03;1.93;;;;;;;;;;5074397;28;20302;-84
2024/04/06 04:29:21;;;;;;;3.77;1.70;;;;;;;;;;5090298;28;20693;-83
2024/04/06 04:31:47;;;;;;;4.27;2.43;;;;;;;;;;5089597;28;20643;-84
2024/04/06 04:34:13;;;;;;;7.90;2.07;;;;;;;;;;5089796;28;20200;-84
2024/04/06 04:36:39;;;;;;;5.70;1.83;;;;;;;;;;5087710;28;20711;-84
2024/04/06 04:39:05;;;;;;;8.63;1.90;;;;;;;;;;5090925;28;20206;-84
2024/04/06 04:41:31;;;;;;;4.30;1.70;;;;;;;;;;5090804;28;20185;-83
2024/04/06 04:43:57;;;;;;;2.93;1.80;;;;;;;;;;5091618;28;20177;-84
2024/04/06 04:46:23;;;;;;;3.40;1.77;;;;;;;;;;5087305;28;20211;-84
2024/04/06 04:49:08;;;;;;;3.77;1.93;;;;;;;;;;5092618;28;20528;-84
2024/04/06 04:51:34;;;;;;;3.70;2.17;;;;;;;;;;5071514;28;20201;-83
2024/04/06 04:53:59;;;;;;;5.90;2.10;;;;;;;;;;5090641;28;20178;-83
2024/04/06 04:56:25;;;;;;;3.93;1.90;;;;;;;;;;5088149;28;20225;-84
2024/04/06 04:58:51;;;;;;;4.23;1.80;;;;;;;;;;5084592;28;20455;-84
2024/04/06 05:01:17;;;;;;;3.03;1.57;;;;;;;;;;5090659;28;20520;-84
2024/04/06 05:03:43;;;;;;;7.43;1.90;;;;;;;;;;5087327;28;20186;-84
2024/04/06 05:06:09;;;;;;;5.27;2.33;;;;;;;;;;5065594;28;20269;-84
2024/04/06 05:08:35;;;;;;;4.80;2.10;;;;;;;;;;5082297;28;20236;-84
2024/04/06 05:11:01;;;;;;;3.33;1.60;;;;;;;;;;5092542;28;20652;-84
2024/04/06 05:13:28;;;;;;;3.70;1.73;;;;;;;;;;5089567;28;20312;-84
2024/04/06 05:15:55;;;;;;;5.50;2.03;;;;;;;;;;5090222;28;20191;-83
2024/04/06 05:18:21;;;;;;;6.47;1.73;;;;;;;;;;5089092;28;20233;-83
2024/04/06 05:20:54;;;;;;;4.07;1.53;;;;;;;;;;5082132;28;20178;-83
2024/04/06 05:23:20;;;;;;;4.63;1.53;;;;;;;;;;5081070;28;20428;-85
2024/04/06 05:25:47;;;;;;;4.93;1.60;;;;;;;;;;5083123;28;20182;-84
2024/04/06 05:28:13;;;;;;;3.40;1.77;;;;;;;;;;5086329;28;20203;-84
2024/04/06 05:30:39;;;;;;;3.10;1.47;;;;;;;;;;5088190;28;20186;-84
2024/04/06 05:33:05;;;;;;;3.70;1.30;;;;;;;;;;5072108;28;20740;-84
2024/04/06 05:35:31;;;;;;;5.03;1.47;;;;;;;;;;5073211;28;20669;-84
2024/04/06 05:37:57;;;;;;;2.17;1.20;;;;;;;;;;5087799;28;20447;-84
2024/04/06 05:40:23;;;;;;;3.07;1.37;;;;;;;;;;5089889;28;20313;-82
2024/04/06 05:42:49;;;;;;;3.00;1.50;;;;;;;;;;5092618;28;20178;-84
2024/04/06 05:48:11;;;;;;;3.07;1.33;;;;;;;;;;5090171;28;20201;-84
2024/04/06 05:50:38;;;;;;;1.90;1.10;;;;;;;;;;5089256;28;20282;-84
2024/04/06 05:53:04;;;;;;;2.40;1.40;;;;;;;;;;5086850;28;20170;-84
2024/04/06 05:55:31;;;;;;;4.47;1.50;;;;;;;;;;5089962;28;20182;-84
2024/04/06 05:58:37;;;;;;;3.17;1.40;;;;;;;;;;5086066;28;20358;-83
2024/04/06 06:01:07;;;;;;;2.93;1.33;;;;;;;;;;5084250;28;20231;-84
2024/04/06 06:03:33;;;;;;;1.30;1.00;;;;;;;;;;5089818;28;20250;-84
2024/04/06 06:05:59;;;;;;;2.50;1.23;;;;;;;;;;5088934;28;20190;-84
2024/04/06 06:08:25;;;;;;;3.43;1.27;;;;;;;;;;5088791;28;20220;-82
2024/04/06 06:10:54;;;;;;;3.20;1.00;;;;;;;;;;5088541;28;20204;-83
2024/04/06 06:13:20;;;;;;;2.77;1.20;;;;;;;;;;5089274;28;20182;-84
2024/04/06 06:15:46;;;;;;;2.87;1.07;;;;;;;;;;5089613;28;20597;-84
2024/04/06 06:18:12;;;;;;;2.83;1.07;;;;;;;;;;5087561;28;20198;-83
2024/04/06 06:20:41;;;;;;;2.43;1.13;;;;;;;;;;5086831;28;20198;-84
2024/04/06 06:23:07;;;;;;;1.83;0.97;;;;;;;;;;5069458;28;20179;-83
2024/04/06 06:25:33;;;;;;;2.53;1.10;;;;;;;;;;5093220;28;20178;-83
2024/04/06 06:27:59;;;;;;;6.43;3.17;;;;;;;;;;5092490;28;20194;-83
2024/04/06 06:30:26;;;;;;;9.10;6.03;;;;;;;;;;5093389;28;20197;-82
2024/04/06 06:32:52;;;;;;;7.63;5.87;;;;;;;;;;5087860;28;20212;-83
2024/04/06 06:35:18;;;;;;;7.90;5.53;;;;;;;;;;5088504;28;20182;-83
2024/04/06 06:37:45;;;;;;;3.23;2.50;;;;;;;;;;5088133;28;20213;-83
2024/04/06 06:40:13;;;;;;;5.00;2.13;;;;;;;;;;5087424;28;20209;-84
2024/04/06 06:42:49;;;;;;;;;;;;;;;;;;;;;
2024/04/06 06:45:15;;;;;;;2.00;0.80;;;;;;;;;;5088689;28;20178;-83
2024/04/06 06:47:42;;;;;;;93.13;35.40;;;;;;;;;;5071445;28;20639;-83
2024/04/06 06:50:09;;;;;;;2.33;1.20;;;;;;;;;;5087981;28;20620;-83
2024/04/06 06:52:35;;;;;;;4.67;1.40;;;;;;;;;;5088924;28;20186;-83
2024/04/06 06:55:01;;;;;;;3.97;1.70;;;;;;;;;;5088625;28;20231;-83
2024/04/06 06:57:27;;;;;;;3.03;0.90;;;;;;;;;;5078927;28;20272;-83
2024/04/06 06:59:53;;;;;;;2.10;0.90;;;;;;;;;;5049906;28;20629;-83
2024/04/06 07:02:19;;;;;;;2.90;0.90;;;;;;;;;;5077651;28;20213;-83
2024/04/06 07:04:45;;;;;;;1.30;0.70;;;;;;;;;;5069812;28;20673;-82
2024/04/06 07:07:11;;;;;;;1.40;0.60;;;;;;;;;;5069441;28;20671;-85
2024/04/06 07:09:37;;;;;;;1.73;0.90;;;;;;;;;;5073801;28;20214;-85
2024/04/06 07:12:03;;;;;;;2.87;0.73;;;;;;;;;;5078995;28;20496;-82
2024/04/06 07:14:29;;;;;;;2.63;0.80;;;;;;;;;;5074750;28;20274;-85
2024/04/06 07:16:55;;;;;;;2.00;0.60;;;;;;;;;;5073794;28;20222;-84
2024/04/06 07:19:21;;;;;;;0.80;0.70;;;;;;;;;;5069989;28;20199;-83
2024/04/06 07:21:47;;;;;;;0.97;0.60;;;;;;;;;;5075655;28;20187;-84
2024/04/06 07:24:15;;;;;;;2.57;1.20;;;;;;;;;;5074022;28;20187;-83
2024/04/06 07:26:41;;;;;;;1.47;0.80;;;;;;;;;;5072127;28;20206;-84
2024/04/06 07:29:07;;;;;;;3.97;0.90;;;;;;;;;;5065620;28;20384;-84
2024/04/06 07:31:33;;;;;;;3.03;0.80;;;;;;;;;;5052581;28;20226;-81
2024/04/06 07:33:59;;;;;;;2.27;0.70;;;;;;;;;;5073796;28;20190;-84
2024/04/06 07:36:25;;;;;;;4.10;0.70;;;;;;;;;;5075231;28;20627;-83
2024/04/06 07:38:51;;;;;;;2.93;0.60;;;;;;;;;;5066752;28;20784;-83
2024/04/06 07:41:17;;;;;;;1.47;1.00;;;;;;;;;;5079606;28;20652;-82
2024/04/06 07:43:42;;;;;;;3.00;0.70;;;;;;;;;;5052387;28;20183;-83
2024/04/06 07:46:08;;;;;;;2.30;0.70;;;;;;;;;;5068140;28;20183;-84
2024/04/06 07:48:35;;;;;;;1.43;0.60;;;;;;;;;;5050949;28;20681;-83
2024/04/06 07:51:01;;;;;;;2.50;0.73;;;;;;;;;;5068512;28;20186;-83
2024/04/06 07:53:27;;;;;;;1.90;0.60;;;;;;;;;;5068413;28;20213;-84
2024/04/06 07:55:53;;;;;;;3.20;0.80;;;;;;;;;;5072429;28;21577;-83
2024/04/06 07:58:19;;;;;;;4.43;0.90;;;;;;;;;;5067159;28;20291;-83
2024/04/06 08:00:45;;;;;;;1.57;0.67;;;;;;;;;;5066533;28;20665;-84
2024/04/06 08:03:16;;;;;;;1.97;0.70;;;;;;;;;;5074759;28;20258;-86
2024/04/06 08:05:42;;;;;;;1.43;0.67;;;;;;;;;;5071614;28;20517;-87
2024/04/06 08:08:09;;;;;;;1.70;0.73;;;;;;;;;;5107348;22;20252;-85
2024/04/06 08:18:42;;;;;;;2.50;0.77;;;;;;;;;;5032559;28;20426;-86
2024/04/06 08:21:08;;;;;;;2.10;0.67;;;;;;;;;;5035181;28;20216;-84
2024/04/06 08:23:34;;;;;;;3.27;0.73;;;;;;;;;;5026072;28;20193;-84
2024/04/06 08:26:00;;;;;;;1.87;0.53;;;;;;;;;;5012087;28;20288;-86
2024/04/06 08:28:26;;;;;;;2.63;0.80;;;;;;;;;;5031672;28;20180;-86
2024/04/06 08:30:52;;;;;;;2.03;0.70;;;;;;;;;;5031000;28;20535;-86
2024/04/06 08:33:18;;;;;;;2.30;0.87;;;;;;;;;;5039506;28;20184;-85
2024/04/06 08:35:44;;;;;;;1.40;0.60;;;;;;;;;;5033494;28;20196;-86
2024/04/06 08:38:12;;;;;;;1.50;0.63;;;;;;;;;;5030674;28;20203;-86
2024/04/06 08:40:40;;;;;;;5.67;0.70;;;;;;;;;;5022608;28;20203;-86
2024/04/06 08:43:11;;;;;;;2.93;0.80;;;;;;;;;;5032593;28;20180;-86
2024/04/06 08:45:37;;;;;;;3.10;0.90;;;;;;;;;;5030658;28;20263;-85
2024/04/06 08:48:03;;;;;;;1.57;0.80;;;;;;;;;;5029063;28;20274;-86
2024/04/06 08:50:29;;;;;;;1.20;0.70;;;;;;;;;;5007181;28;20209;-85
2024/04/06 08:52:55;;;;;;;1.83;0.67;;;;;;;;;;5030887;28;20186;-85
2024/04/06 08:55:22;;;;;;;1.45;0.70;;;;;;;;;;5012475;28;20658;-86
2024/04/06 08:57:48;;;;;;;3.28;0.73;;;;;;;;;;5026299;28;20559;-86
2024/04/06 09:00:15;;;;;;;2.28;0.50;;;;;;;;;;5029475;28;20200;-85
2024/04/06 09:02:41;;;;;;;1.50;0.65;;;;;;;;;;5029007;28;20180;-86
2024/04/06 09:05:07;;;;;;;3.45;0.85;;;;;;;;;;5028192;28;20173;-86
2024/04/06 09:07:34;;;;;;;2.75;0.75;;;;;;;;;;5037513;28;20184;-86
2024/04/06 09:10:00;;;;;;;3.47;1.10;;;;;;;;;;5031707;28;20204;-85
2024/04/06 09:12:26;;;;;;;1.60;0.60;;;;;;;;;;5031886;28;20223;-86
2024/04/06 09:14:52;;;;;;;2.13;0.80;;;;;;;;;;5026271;28;20655;-86
2024/04/06 09:17:19;;;;;;;2.05;0.70;;;;;;;;;;5024547;28;20547;-87
2024/04/06 09:19:46;;;;;;;2.38;0.85;;;;;;;;;;5011842;28;20220;-86
2024/04/06 09:22:12;;;;;;;2.25;0.68;;;;;;;;;;5014439;28;20188;-87
2024/04/06 09:24:38;;;;;;;1.85;0.68;;;;;;;;;;5013232;28;20204;-86
2024/04/06 09:27:04;;;;;;;2.35;0.73;;;;;;;;;;5030031;28;20183;-86
2024/04/06 09:29:30;;;;;;;4.18;0.70;;;;;;;;;;5014564;28;20196;-86
2024/04/06 09:31:59;;;;;;;2.45;0.80;;;;;;;;;;5014120;28;20199;-86
2024/04/06 09:34:25;;;;;;;1.52;0.70;;;;;;;;;;5029354;28;20222;-86
2024/04/06 09:36:56;;;;;;;2.28;0.68;;;;;;;;;;5030789;28;20215;-85
2024/04/06 09:39:22;;;;;;;2.03;0.80;;;;;;;;;;5029785;28;20572;-86
2024/04/06 09:41:49;;;;;;;1.38;0.68;;;;;;;;;;5012466;28;20188;-86
2024/04/06 09:44:15;;;;;;;1.38;0.82;;;;;;;;;;5029187;28;20238;-87
2024/04/06 09:46:43;;;;;;;1.08;0.60;;;;;;;;;;5015315;28;20184;-85
2024/04/06 09:49:09;;;;;;;3.38;0.90;;;;;;;;;;5026138;28;20243;-86
2024/04/06 09:51:35;;;;;;;3.08;0.88;;;;;;;;;;5018928;28;20312;-85
2024/04/06 09:54:01;;;;;;;3.80;0.90;;;;;;;;;;5016417;28;20212;-84
2024/04/06 09:56:27;;;;;;;2.75;0.80;;;;;;;;;;5019392;28;20188;-85
2024/04/06 09:58:53;;;;;;;2.13;0.73;;;;;;;;;;5035460;28;20212;-84
2024/04/06 10:01:19;;;;;;;2.83;0.80;;;;;;;;;;5037116;28;20203;-83
2024/04/06 10:03:46;;;;;;;2.45;0.65;;;;;;;;;;5033840;28;20195;-83
2024/04/06 10:06:15;;;;;;;3.38;0.90;;;;;;;;;;5033120;28;20195;-83
2024/04/06 10:08:46;;;;;;;1.10;0.60;;;;;;;;;;5035518;28;20208;-84
2024/04/06 10:11:13;;;;;;;2.72;0.75;;;;;;;;;;5017141;28;20936;-85
2024/04/06 10:13:40;;;;;;;1.35;0.70;;;;;;;;;;5032269;28;20637;-84
2024/04/06 10:16:06;;;;;;;2.05;0.70;;;;;;;;;;5030435;28;20654;-84
2024/04/06 10:18:33;;;;;;;2.35;0.90;;;;;;;;;;5033110;28;20223;-84
2024/04/06 10:21:07;;;;;;;2.47;1.05;;;;;;;;;;5031335;28;20226;-85
2024/04/06 10:23:38;;;;;;;3.55;1.30;;;;;;;;;;5036061;28;20187;-85
2024/04/06 10:26:04;;;;;;;2.15;0.80;;;;;;;;;;5022234;28;20182;-85
2024/04/06 10:28:30;;;;;;;1.42;0.60;;;;;;;;;;5040648;28;20651;-85
2024/04/06 10:30:57;;;;;;;2.08;0.77;;;;;;;;;;5023851;28;20260;-83
2024/04/06 10:33:23;;;;;;;5.03;0.80;;;;;;;;;;5031850;28;20188;-83
2024/04/06 10:35:53;;;;;;;6.40;0.93;;;;;;;;;;5034082;28;20176;-83
2024/04/06 10:38:20;;;;;;;4.78;0.90;;;;;;;;;;5034817;28;20176;-85
2024/04/06 10:40:46;;;;;;;3.22;1.10;;;;;;;;;;5017481;28;20419;-83
2024/04/06 10:43:12;;;;;;;1.00;0.65;;;;;;;;;;5029814;28;20184;-83
2024/04/06 10:45:38;;;;;;;2.05;0.82;;;;;;;;;;5033335;28;20667;-84
2024/04/06 10:48:05;;;;;;;1.50;0.75;;;;;;;;;;5022176;28;20180;-84
2024/04/06 10:50:32;;;;;;;1.38;0.85;;;;;;;;;;5031035;28;20331;-84
2024/04/06 10:52:59;;;;;;;1.52;0.70;;;;;;;;;;5016084;28;20548;-85
2024/04/06 10:55:26;;;;;;;1.52;0.85;;;;;;;;;;5030704;28;20187;-84
2024/04/06 10:57:55;;;;;;;2.10;0.98;;;;;;;;;;5034032;28;20198;-86
2024/04/06 11:00:22;;;;;;;1.05;0.60;;;;;;;;;;5039034;28;20620;-84
2024/04/06 11:02:51;;;;;;;1.95;0.80;;;;;;;;;;5016567;28;20181;-85
2024/04/06 11:05:18;;;;;;;1.73;0.55;;;;;;;;;;5033549;28;20290;-85
2024/04/06 11:07:44;;;;;;;7.25;0.90;;;;;;;;;;5017758;28;20537;-85
2024/04/06 11:10:11;;;;;;;1.23;0.70;;;;;;;;;;5026353;28;20197;-84
2024/04/06 11:12:37;;;;;;;2.22;0.90;;;;;;;;;;5014159;28;20667;-84
2024/04/06 11:15:03;;;;;;;3.15;0.85;;;;;;;;;;5011872;28;20313;-82
2024/04/06 11:17:29;;;;;;;11.73;1.33;;;;;;;;;;5035454;28;20196;-82
2024/04/06 11:19:56;;;;;;;3.00;0.80;;;;;;;;;;5035607;28;20551;-83
2024/04/06 11:22:22;;;;;;;1.05;0.70;;;;;;;;;;5048845;28;20278;-83
2024/04/06 11:24:48;;;;;;;0.70;0.55;;;;;;;;;;5036639;28;20258;-84
2024/04/06 11:27:19;;;;;;;2.08;1.38;;;;;;;;;;5032596;28;20210;-84
2024/04/06 11:29:51;;;;;;;13.18;1.98;;;;;;;;;;5047656;28;20209;-84
2024/04/06 11:32:21;;;;;;;2.38;0.70;;;;;;;;;;5050877;28;20180;-83
2024/04/06 11:34:51;;;;;;;1.63;0.70;;;;;;;;;;5032460;28;20183;-83
2024/04/06 11:37:19;;;;;;;2.50;0.85;;;;;;;;;;5050556;28;20582;-83
2024/04/06 11:39:46;;;;;;;1.38;0.93;;;;;;;;;;5054661;28;20564;-83
2024/04/06 11:42:11;;;;;;;1.90;0.88;;;;;;;;;;5054802;28;20174;-84
2024/04/06 11:44:37;;;;;;;2.50;0.80;;;;;;;;;;5051390;28;20175;-83
2024/04/06 11:47:03;;;;;;;5.40;0.90;;;;;;;;;;5036686;28;20211;-83
2024/04/06 11:49:30;;;;;;;2.15;0.98;;;;;;;;;;5055696;28;20207;-84
2024/04/06 11:51:56;;;;;;;2.25;0.82;;;;;;;;;;5054418;28;20205;-82
2024/04/06 11:54:22;;;;;;;2.88;1.30;;;;;;;;;;5051458;28;20278;-84
2024/04/06 11:56:48;;;;;;;8.40;1.38;;;;;;;;;;5056766;28;20188;-85
2024/04/06 11:59:15;;;;;;;3.75;1.10;;;;;;;;;;5054194;28;20290;-85
2024/04/06 12:01:41;;;;;;;2.20;1.27;;;;;;;;;;5055475;28;20223;-84
2024/04/06 12:04:08;;;;;;;2.88;0.70;;;;;;;;;;5052756;28;20199;-83
2024/04/06 12:06:34;;;;;;;3.75;1.20;;;;;;;;;;5051642;28;20270;-84
2024/04/06 12:09:00;;;;;;;1.67;0.80;;;;;;;;;;5042700;28;20219;-84
2024/04/06 12:11:26;;;;;;;2.60;1.02;;;;;;;;;;5053411;28;20331;-83
2024/04/06 12:13:52;;;;;;;2.40;0.70;;;;;;;;;;5037710;28;20274;-84
2024/04/06 12:16:18;;;;;;;1.45;0.82;;;;;;;;;;5058013;28;20595;-84
2024/04/06 12:18:44;;;;;;;1.20;0.80;;;;;;;;;;5060179;22;20234;-85
2024/04/06 12:21:10;;;;;;;1.38;0.80;;;;;;;;;;5076195;28;20252;-85
2024/04/06 12:23:36;;;;;;;2.75;0.70;;;;;;;;;;5089957;28;20171;-85
2024/04/06 12:26:02;;;;;;;1.40;0.80;;;;;;;;;;5085060;28;20198;-85
2024/04/06 12:28:28;;;;;;;3.90;0.90;;;;;;;;;;5080489;28;20224;-85
2024/04/06 12:30:54;;;;;;;2.80;0.73;;;;;;;;;;5098940;28;20182;-86
2024/04/06 12:33:20;;;;;;;0.80;0.60;;;;;;;;;;5093594;28;20227;-86
2024/04/06 12:35:48;;;;;;;1.33;0.70;;;;;;;;;;5094182;28;20668;-88
2024/04/06 12:38:14;;;;;;;1.10;0.50;;;;;;;;;;5074215;28;20199;-86
2024/04/06 12:40:40;;;;;;;4.22;1.08;;;;;;;;;;5090736;28;20214;-86
2024/04/06 12:43:06;;;;;;;2.00;1.00;;;;;;;;;;5093168;28;20194;-86
2024/04/06 12:45:32;;;;;;;2.38;0.90;;;;;;;;;;5092860;28;20206;-88
2024/04/06 12:47:58;;;;;;;7.75;0.88;;;;;;;;;;5065508;28;20206;-87
2024/04/06 12:50:25;;;;;;;1.88;0.70;;;;;;;;;;5091389;28;20186;-86
2024/04/06 12:52:53;;;;;;;0.73;0.70;;;;;;;;;;5089275;28;20189;-86
2024/04/06 12:55:58;;;;;;;1.00;0.80;;;;;;;;;;5090553;28;20174;-88
2024/04/06 12:58:46;;;;;;;1.67;0.90;;;;;;;;;;5025345;28;20231;-87
2024/04/06 13:01:12;;;;;;;2.17;0.65;;;;;;;;;;5012643;28;20184;-87
2024/04/06 13:03:38;;;;;;;3.63;0.93;;;;;;;;;;5064371;28;20625;-87
2024/04/06 13:06:04;;;;;;;1.80;0.65;;;;;;;;;;5089360;28;20205;-87
2024/04/06 13:08:31;;;;;;;2.78;0.80;;;;;;;;;;5084507;28;20210;-89
2024/04/06 13:10:57;;;;;;;1.17;0.70;;;;;;;;;;5072930;28;20182;-86
2024/04/06 13:13:23;;;;;;;1.88;0.80;;;;;;;;;;5088234;28;20178;-86
2024/04/06 13:15:49;;;;;;;1.65;0.95;;;;;;;;;;5088098;28;20541;-87
2024/04/06 13:18:15;;;;;;;1.05;0.63;;;;;;;;;;5087481;28;20693;-87
2024/04/06 13:20:41;;;;;;;1.80;0.82;;;;;;;;;;5090651;28;20214;-87
2024/04/06 13:23:08;;;;;;;1.88;1.00;;;;;;;;;;5086830;28;20227;-87
2024/04/06 13:25:34;;;;;;;2.60;0.77;;;;;;;;;;5071972;28;20672;-87
2024/04/06 13:28:00;;;;;;;1.52;0.80;;;;;;;;;;5089313;28;20384;-88
2024/04/06 13:30:26;;;;;;;1.52;0.88;;;;;;;;;;5089891;28;20335;-87
2024/04/06 13:32:52;;;;;;;3.72;1.08;;;;;;;;;;5086561;28;20189;-87
2024/04/06 13:35:18;;;;;;;1.00;0.77;;;;;;;;;;5088972;28;20178;-87
2024/04/06 13:37:45;;;;;;;1.90;0.80;;;;;;;;;;5084652;28;20574;-87
2024/04/06 13:40:12;;;;;;;2.47;1.20;;;;;;;;;;5091178;28;20206;-86
2024/04/06 13:42:38;;;;;;;3.40;1.35;;;;;;;;;;5088484;28;20175;-87
2024/04/06 13:45:12;;;;;;;5.63;1.08;;;;;;;;;;5088901;28;20178;-89
2024/04/06 13:47:38;;;;;;;1.70;0.90;;;;;;;;;;5072448;28;20194;-86
2024/04/06 13:50:04;;;;;;;3.30;1.05;;;;;;;;;;5072702;28;20178;-86
2024/04/06 13:52:30;;;;;;;1.83;0.90;;;;;;;;;;5087516;28;20182;-87
2024/04/06 13:54:56;;;;;;;1.90;1.00;;;;;;;;;;5083268;28;20182;-87
2024/04/06 13:57:22;;;;;;;6.53;4.40;;;;;;;;;;5086154;28;20268;-87
2024/04/06 13:59:48;;;;;;;2.00;1.20;;;;;;;;;;5086921;28;20206;-86
2024/04/06 14:02:14;;;;;;;7.88;7.15;;;;;;;;;;5069684;28;20200;-87
2024/04/06 14:04:40;;;;;;;3.22;0.95;;;;;;;;;;5088065;28;20675;-87
2024/04/06 14:07:06;;;;;;;1.42;0.82;;;;;;;;;;5086682;28;20229;-86
2024/04/06 14:09:32;;;;;;;2.65;1.35;;;;;;;;;;5085368;28;20190;-88
2024/04/06 14:11:58;;;;;;;4.63;3.22;;;;;;;;;;5089401;28;20654;-87
2024/04/06 14:14:28;;;;;;;1.50;1.40;;;;;;;;;;5082505;28;20378;-87
2024/04/06 14:16:55;;;;;;;1.95;1.67;;;;;;;;;;5087153;28;20198;-88
2024/04/06 14:19:22;;;;;;;1.38;0.73;;;;;;;;;;5068424;28;20237;-87
2024/04/06 14:21:51;;;;;;;1.23;0.80;;;;;;;;;;5089698;28;20263;-87
2024/04/06 14:24:17;;;;;;;2.67;1.10;;;;;;;;;;5088019;28;20638;-87
2024/04/06 14:26:43;;;;;;;1.25;0.70;;;;;;;;;;5099744;28;20202;-87
2024/04/06 14:29:10;;;;;;;1.10;0.80;;;;;;;;;;5084334;28;20668;-87
2024/04/06 14:31:36;;;;;;;2.70;0.90;;;;;;;;;;5085469;28;20189;-87
2024/04/06 14:34:02;;;;;;;2.50;0.93;;;;;;;;;;5070921;28;20209;-86
2024/04/06 14:36:28;;;;;;;1.50;1.00;;;;;;;;;;5084206;28;20182;-87
2024/04/06 14:38:54;;;;;;;2.03;0.95;;;;;;;;;;5064268;28;20210;-87
2024/04/06 14:41:20;;;;;;;1.58;1.00;;;;;;;;;;5065624;28;20224;-87
2024/04/06 14:43:46;;;;;;;3.33;1.20;;;;;;;;;;5085972;28;20677;-86
2024/04/06 14:46:12;;;;;;;2.97;1.38;;;;;;;;;;5086883;28;20187;-87
2024/04/06 14:48:38;;;;;;;2.30;0.70;;;;;;;;;;5086714;28;20178;-86
2024/04/06 14:51:04;;;;;;;1.50;0.90;;;;;;;;;;5084141;28;20211;-87